Time;durP1;ratioP1;P1;durP2;ratioP2;P2;SDS_P1;SDS_P2;PMS_P1;PMS_P2;Temp;Humidity;BMP_temperature;BMP_pressure;BME280_temperature;BME280_humidity;BME280_pressure;Samples;Min_cycle;Max_cycle;Signal;HPM_P1;HPM_P2
2022/06/23 00:00:30;;;;;;;2.33;2.23;;;22.40;46.40;;;;;;4988570;28;20529;-71
2022/06/23 00:02:58;;;;;;;2.20;2.10;;;22.40;46.30;;;;;;4987520;28;20438;-71
2022/06/23 00:05:28;;;;;;;2.00;1.90;;;22.40;46.40;;;;;;4985402;28;20466;-71
2022/06/23 00:07:57;;;;;;;2.03;1.93;;;22.40;46.40;;;;;;4986214;28;20513;-71
2022/06/23 00:10:33;;;;;;;2.60;2.50;;;22.40;46.40;;;;;;4988736;28;20446;-71
2022/06/23 00:12:59;;;;;;;2.40;2.30;;;22.40;46.40;;;;;;4986793;28;20838;-71
2022/06/23 00:15:28;;;;;;;2.00;1.90;;;22.40;46.40;;;;;;4986052;28;20485;-72
2022/06/23 00:18:00;;;;;;;2.17;2.07;;;22.40;46.40;;;;;;4989465;28;20681;-71
2022/06/23 00:20:51;;;;;;;2.00;1.90;;;22.40;46.40;;;;;;4986310;28;20450;-71
2022/06/23 00:23:23;;;;;;;2.30;2.10;;;22.40;46.40;;;;;;4981994;28;20438;-71
2022/06/23 00:26:01;;;;;;;1.80;1.70;;;22.40;46.40;;;;;;4987644;28;20476;-71
2022/06/23 00:28:37;;;;;;;2.23;2.13;;;22.40;46.40;;;;;;4984262;28;20446;-71
2022/06/23 00:31:20;;;;;;;2.27;2.17;;;22.40;46.40;;;;;;4986116;28;20433;-71
2022/06/23 00:33:45;;;;;;;2.23;2.13;;;22.40;46.30;;;;;;4985745;28;20546;-71
2022/06/23 00:36:38;;;;;;;2.13;2.03;;;22.40;46.40;;;;;;4988520;28;20500;-71
2022/06/23 00:39:23;;;;;;;2.10;2.00;;;22.40;46.30;;;;;;4978700;28;20201;-72
2022/06/23 00:41:49;;;;;;;2.20;2.10;;;22.40;46.40;;;;;;4989276;28;20936;-71
2022/06/23 00:44:29;;;;;;;2.03;1.93;;;22.40;46.30;;;;;;4985262;28;20495;-71
2022/06/23 00:46:58;;;;;;;2.33;2.23;;;22.40;46.40;;;;;;4986845;28;20544;-71
2022/06/23 00:49:44;;;;;;;1.70;1.60;;;22.40;46.40;;;;;;4990418;28;20446;-71
2022/06/23 00:52:38;;;;;;;2.00;1.90;;;22.40;46.40;;;;;;4988950;28;20453;-71
2022/06/23 00:55:35;;;;;;;2.30;2.20;;;22.40;46.40;;;;;;4988342;28;20540;-71
2022/06/23 00:58:16;;;;;;;2.10;2.00;;;22.30;46.30;;;;;;4972874;28;20446;-71
2022/06/23 01:00:43;;;;;;;2.00;1.90;;;22.40;46.40;;;;;;4986478;28;20537;-71
2022/06/23 01:03:21;;;;;;;2.63;2.47;;;22.40;46.40;;;;;;4991272;28;20438;-71
2022/06/23 01:06:04;;;;;;;2.20;2.10;;;22.40;46.50;;;;;;4989161;28;20583;-71
2022/06/23 01:08:39;;;;;;;1.90;1.80;;;22.30;46.30;;;;;;4989789;28;20441;-72
2022/06/23 01:11:13;;;;;;;2.43;2.33;;;22.40;46.40;;;;;;4990451;28;20520;-71
2022/06/23 01:13:55;;;;;;;2.10;2.00;;;22.40;46.40;;;;;;4989644;28;20437;-71
2022/06/23 01:16:40;;;;;;;2.23;2.13;;;22.30;46.30;;;;;;4988554;28;20427;-71
2022/06/23 01:19:24;;;;;;;2.00;1.90;;;22.30;46.30;;;;;;4987362;28;20441;-71
2022/06/23 01:21:58;;;;;;;1.93;1.83;;;22.40;46.40;;;;;;4986864;28;20442;-71
2022/06/23 01:24:23;;;;;;;2.30;2.10;;;22.40;46.40;;;;;;4987804;28;20473;-74
2022/06/23 01:27:06;;;;;;;2.20;2.10;;;22.40;46.40;;;;;;4986221;28;20442;-71
2022/06/23 01:29:43;;;;;;;2.03;1.93;;;22.40;46.40;;;;;;4989603;28;20246;-71
2022/06/23 01:32:30;;;;;;;2.10;1.90;;;22.40;46.40;;;;;;4984791;28;20446;-71
2022/06/23 01:35:13;;;;;;;2.00;1.90;;;22.40;46.50;;;;;;4990546;28;20548;-71
2022/06/23 01:38:09;;;;;;;2.50;2.40;;;22.40;46.40;;;;;;4987213;28;20515;-71
2022/06/23 01:40:41;;;;;;;2.20;2.10;;;22.30;46.40;;;;;;4987266;28;20461;-71
2022/06/23 01:43:15;;;;;;;1.97;1.87;;;22.30;46.30;;;;;;4986394;28;20521;-73
2022/06/23 01:46:01;;;;;;;1.87;1.77;;;22.40;46.40;;;;;;4988135;28;20473;-72
2022/06/23 01:48:52;;;;;;;2.37;2.27;;;22.40;46.40;;;;;;4968309;28;20625;-72
2022/06/23 01:51:23;;;;;;;1.87;1.77;;;22.30;46.30;;;;;;4985731;28;20439;-72
2022/06/23 01:53:51;;;;;;;2.17;2.07;;;22.30;46.30;;;;;;4987097;28;20952;-71
2022/06/23 01:56:43;;;;;;;2.10;2.00;;;22.30;46.30;;;;;;4986123;28;20426;-72
2022/06/23 01:59:36;;;;;;;2.00;1.90;;;22.30;46.30;;;;;;4986052;28;20434;-72
2022/06/23 02:02:10;;;;;;;2.00;1.90;;;22.30;46.30;;;;;;4985555;28;20442;-72
2022/06/23 02:04:47;;;;;;;1.90;1.80;;;22.30;46.20;;;;;;4987218;28;20444;-72
2022/06/23 02:07:27;;;;;;;2.23;2.13;;;22.30;46.30;;;;;;4970838;28;20426;-72
2022/06/23 02:10:06;;;;;;;1.90;1.80;;;22.30;46.30;;;;;;4980292;28;20454;-72
2022/06/23 02:12:45;;;;;;;2.00;1.90;;;22.30;46.30;;;;;;4984687;28;20461;-72
2022/06/23 02:15:44;;;;;;;2.13;2.03;;;22.30;46.30;;;;;;4987296;28;20492;-71
2022/06/23 02:18:26;;;;;;;2.00;1.90;;;22.30;46.20;;;;;;4983722;28;20447;-71
2022/06/23 02:20:57;;;;;;;2.10;2.00;;;22.30;46.30;;;;;;4985871;28;20522;-72
2022/06/23 02:23:40;;;;;;;2.20;2.10;;;22.30;46.30;;;;;;4987938;28;20491;-72
2022/06/23 02:26:17;;;;;;;2.27;2.17;;;22.30;46.30;;;;;;4988534;28;20790;-72
2022/06/23 02:28:57;;;;;;;1.80;1.70;;;22.30;46.30;;;;;;4984224;28;20438;-72
2022/06/23 02:31:26;;;;;;;2.00;1.87;;;22.30;46.30;;;;;;4986985;28;20430;-72
2022/06/23 02:34:14;;;;;;;2.00;1.90;;;22.30;46.20;;;;;;4988927;28;20971;-72
2022/06/23 02:36:42;;;;;;;2.13;2.03;;;22.30;46.20;;;;;;4986031;28;20431;-72
2022/06/23 02:39:20;;;;;;;2.10;2.00;;;22.30;46.30;;;;;;4990429;28;20438;-72
2022/06/23 02:41:58;;;;;;;2.47;2.27;;;22.30;46.20;;;;;;4983901;28;20444;-72
2022/06/23 02:45:03;;;;;;;2.20;2.10;;;22.30;46.20;;;;;;4985662;28;20855;-72
2022/06/23 02:47:57;;;;;;;2.10;2.00;;;22.30;46.20;;;;;;4985900;28;20444;-72
2022/06/23 02:50:48;;;;;;;2.43;2.10;;;22.30;46.30;;;;;;4982219;28;20451;-72
2022/06/23 02:53:28;;;;;;;2.10;2.00;;;22.30;46.30;;;;;;4989477;28;20450;-72
2022/06/23 02:56:09;;;;;;;2.27;2.17;;;22.30;46.40;;;;;;4987160;28;20446;-72
2022/06/23 02:58:49;;;;;;;1.90;1.80;;;22.30;46.20;;;;;;4985656;28;20438;-71
2022/06/23 03:01:50;;;;;;;2.20;2.10;;;22.30;46.30;;;;;;4986726;28;20479;-73
2022/06/23 03:04:23;;;;;;;2.13;2.03;;;22.30;46.20;;;;;;4976984;28;20469;-72
2022/06/23 03:07:27;;;;;;;2.00;1.90;;;22.30;46.30;;;;;;4966144;28;20446;-72
2022/06/23 03:10:21;;;;;;;2.47;2.37;;;22.30;46.40;;;;;;4984232;28;20430;-72
2022/06/23 03:12:54;;;;;;;2.10;2.00;;;22.30;46.30;;;;;;4984776;28;20508;-72
2022/06/23 03:15:33;;;;;;;2.17;2.07;;;22.30;46.30;;;;;;4984994;28;20452;-72
2022/06/23 03:18:02;;;;;;;2.10;2.00;;;22.30;46.30;;;;;;4986403;28;20449;-72
2022/06/23 03:21:00;;;;;;;1.97;1.87;;;22.30;46.30;;;;;;4982222;28;20511;-72
2022/06/23 03:24:04;;;;;;;1.90;1.80;;;22.30;46.30;;;;;;4986586;28;20450;-72
2022/06/23 03:26:41;;;;;;;2.40;2.30;;;22.30;46.40;;;;;;4989014;28;20520;-72
2022/06/23 03:29:28;;;;;;;2.00;1.90;;;22.30;46.40;;;;;;4986782;28;20512;-72
2022/06/23 03:32:08;;;;;;;2.20;2.10;;;22.30;46.30;;;;;;4988783;28;20442;-72
2022/06/23 03:34:52;;;;;;;2.40;2.30;;;22.30;46.40;;;;;;4985878;28;20442;-72
2022/06/23 03:37:33;;;;;;;2.10;2.00;;;22.30;46.30;;;;;;4988999;28;20453;-72
2022/06/23 03:43:21;;;;;;;2.07;1.97;;;22.30;46.30;;;;;;4986358;28;20525;-73
2022/06/23 03:46:08;;;;;;;1.93;1.83;;;22.30;46.30;;;;;;4991585;28;20497;-72
2022/06/23 03:48:43;;;;;;;2.30;2.20;;;22.30;46.30;;;;;;4988808;28;20478;-71
2022/06/23 03:51:34;;;;;;;2.10;2.00;;;22.30;46.30;;;;;;4986415;28;20433;-71
2022/06/23 03:54:13;;;;;;;2.00;1.90;;;22.30;46.30;;;;;;4990492;28;20406;-71
2022/06/23 03:56:59;;;;;;;2.20;2.10;;;22.30;46.20;;;;;;4985138;28;20529;-71
2022/06/23 03:59:34;;;;;;;2.50;2.30;;;22.30;46.20;;;;;;4985284;28;20457;-71
2022/06/23 04:02:12;;;;;;;2.30;2.20;;;22.30;46.20;;;;;;4981696;28;20929;-73
2022/06/23 04:04:55;;;;;;;2.00;1.90;;;22.30;46.20;;;;;;4988060;28;20505;-72
2022/06/23 04:07:29;;;;;;;2.00;1.90;;;22.30;46.20;;;;;;4986642;28;20533;-72
2022/06/23 04:10:11;;;;;;;2.07;1.97;;;22.30;46.20;;;;;;4986589;28;20468;-72
2022/06/23 04:12:44;;;;;;;2.33;2.23;;;22.30;46.20;;;;;;4987718;28;20549;-72
2022/06/23 04:15:17;;;;;;;2.27;2.17;;;22.30;46.30;;;;;;4984860;28;20413;-72
2022/06/23 04:17:50;;;;;;;1.90;1.80;;;22.30;46.30;;;;;;4985465;28;20525;-72
2022/06/23 04:20:20;;;;;;;2.00;1.90;;;22.30;46.30;;;;;;4986356;28;20474;-72
2022/06/23 04:22:54;;;;;;;2.10;2.00;;;22.30;46.20;;;;;;4986620;28;20466;-72
2022/06/23 04:25:22;;;;;;;2.80;2.60;;;22.30;46.20;;;;;;4991714;28;20828;-71
2022/06/23 04:27:58;;;;;;;1.73;1.63;;;22.30;46.20;;;;;;4988883;28;20905;-71
2022/06/23 04:30:30;;;;;;;2.40;2.27;;;22.30;46.20;;;;;;4991186;28;20430;-71
2022/06/23 04:32:58;;;;;;;1.90;1.80;;;22.30;46.20;;;;;;4992108;28;20443;-71
2022/06/23 04:35:38;;;;;;;2.10;2.00;;;22.30;46.20;;;;;;4970269;28;20945;-72
2022/06/23 04:38:29;;;;;;;2.20;2.10;;;22.30;46.30;;;;;;4989723;28;20577;-73
2022/06/23 04:41:05;;;;;;;2.60;2.50;;;22.30;46.20;;;;;;4987154;28;20445;-68
2022/06/23 04:43:39;;;;;;;2.20;2.10;;;22.30;46.20;;;;;;4986757;28;20457;-69
2022/06/23 04:46:38;;;;;;;2.20;2.10;;;22.30;46.20;;;;;;4983942;28;20473;-68
2022/06/23 04:49:24;;;;;;;2.00;1.90;;;22.30;46.20;;;;;;4984009;28;20936;-70
2022/06/23 04:51:56;;;;;;;1.93;1.83;;;22.30;46.20;;;;;;4984041;28;21360;-70
2022/06/23 04:54:46;;;;;;;2.03;1.93;;;22.30;46.20;;;;;;4970207;28;20797;-71
2022/06/23 04:57:20;;;;;;;2.13;2.03;;;22.40;47.00;;;;;;4988101;28;20508;-70
2022/06/23 04:59:51;;;;;;;2.17;2.07;;;22.40;46.20;;;;;;4983665;28;20453;-70
2022/06/23 05:02:23;;;;;;;2.40;2.30;;;22.40;46.20;;;;;;4985697;28;20434;-70
2022/06/23 05:04:58;;;;;;;2.17;2.07;;;22.40;46.20;;;;;;4985689;28;21786;-70
2022/06/23 05:07:57;;;;;;;2.00;1.90;;;22.40;46.10;;;;;;4986420;28;20416;-71
2022/06/23 05:10:27;;;;;;;4.00;2.50;;;22.40;46.20;;;;;;4987401;28;20444;-71
2022/06/23 05:13:12;;;;;;;2.33;2.23;;;22.40;46.20;;;;;;4986477;28;20453;-71
2022/06/23 05:16:05;;;;;;;2.10;2.00;;;22.40;46.10;;;;;;4983287;28;20462;-72
2022/06/23 05:18:41;;;;;;;2.43;2.17;;;22.40;46.20;;;;;;4978695;28;21295;-74
2022/06/23 05:21:22;;;;;;;2.03;1.93;;;22.40;46.20;;;;;;4976912;28;20881;-76
2022/06/23 05:24:08;;;;;;;2.10;2.00;;;22.40;46.10;;;;;;4980755;28;20439;-70
2022/06/23 05:26:42;;;;;;;2.37;2.27;;;22.40;46.20;;;;;;4977896;28;20454;-76
2022/06/23 05:29:21;;;;;;;2.70;2.50;;;22.40;46.20;;;;;;4975664;28;20438;-73
2022/06/23 05:31:52;;;;;;;2.67;2.47;;;22.40;46.20;;;;;;4976515;28;20445;-72
2022/06/23 05:34:28;;;;;;;4.83;2.70;;;22.40;46.20;;;;;;4975122;28;20477;-71
2022/06/23 05:37:17;;;;;;;5.50;2.80;;;22.40;46.20;;;;;;4973437;28;20449;-72
2022/06/23 05:39:51;;;;;;;2.47;2.37;;;22.40;46.20;;;;;;4978232;28;20553;-72
2022/06/23 05:42:38;;;;;;;2.47;2.37;;;22.40;46.10;;;;;;4978906;28;20437;-72
2022/06/23 05:45:10;;;;;;;2.20;2.10;;;22.40;46.20;;;;;;4977938;28;20466;-72
2022/06/23 05:47:38;;;;;;;2.63;2.30;;;22.40;46.20;;;;;;4980256;28;20484;-73
2022/06/23 05:50:14;;;;;;;3.00;2.30;;;22.40;46.20;;;;;;4979251;28;20434;-71
2022/06/23 05:52:58;;;;;;;2.90;2.20;;;22.40;46.10;;;;;;4976955;28;20870;-71
2022/06/23 05:55:33;;;;;;;5.13;2.50;;;22.40;46.10;;;;;;4973690;28;20445;-77
2022/06/23 05:58:22;;;;;;;3.00;2.70;;;22.40;46.10;;;;;;4976028;28;20430;-74
2022/06/23 06:00:56;;;;;;;3.13;2.00;;;22.50;46.20;;;;;;4976174;28;20442;-74
2022/06/23 06:03:39;;;;;;;3.20;2.20;;;22.50;46.10;;;;;;4979893;28;20560;-72
2022/06/23 06:06:07;;;;;;;3.20;2.90;;;22.40;46.10;;;;;;4981940;28;20517;-75
2022/06/23 06:09:35;;;;;;;2.80;2.47;;;22.50;46.20;;;;;;4984877;28;20921;-75
2022/06/23 06:11:25;;;;;;;3.53;2.60;;;22.50;46.20;;;;;;4978213;28;20545;-73
2022/06/23 06:13:51;;;;;;;2.70;2.50;;;22.50;46.20;;;;;;4979831;28;20496;-72
2022/06/23 06:16:16;;;;;;;2.70;2.50;;;22.50;46.20;;;;;;4979770;28;20442;-73
2022/06/23 06:18:44;;;;;;;2.90;2.70;;;22.50;46.10;;;;;;4983646;28;20197;-73
2022/06/23 06:21:16;;;;;;;2.80;2.60;;;22.40;46.10;;;;;;4981216;28;20197;-73
2022/06/23 06:24:12;;;;;;;2.70;2.60;;;22.50;46.20;;;;;;4982138;28;20442;-73
2022/06/23 06:26:44;;;;;;;2.80;2.60;;;22.50;46.20;;;;;;4983813;28;20865;-73
2022/06/23 06:29:34;;;;;;;2.00;1.90;;;22.50;46.20;;;;;;4984669;28;20458;-74
2022/06/23 06:32:11;;;;;;;5.33;2.40;;;22.50;46.20;;;;;;4981174;28;20474;-74
2022/06/23 06:34:42;;;;;;;2.73;2.53;;;22.50;46.30;;;;;;4983653;28;20441;-74
2022/06/23 06:37:11;;;;;;;2.80;2.27;;;22.50;46.20;;;;;;4981759;28;20446;-74
2022/06/23 06:39:46;;;;;;;2.80;2.70;;;22.50;46.30;;;;;;4984128;28;20873;-74
2022/06/23 06:42:17;;;;;;;2.20;2.10;;;22.50;46.30;;;;;;4982152;28;20540;-75
2022/06/23 06:44:56;;;;;;;2.40;2.30;;;22.50;46.30;;;;;;4981021;28;20924;-75
2022/06/23 06:47:28;;;;;;;2.90;2.70;;;22.50;46.20;;;;;;4980226;28;20485;-75
2022/06/23 06:49:58;;;;;;;2.40;2.30;;;22.50;46.20;;;;;;4984235;28;20430;-73
2022/06/23 06:52:25;;;;;;;2.90;2.70;;;22.50;46.20;;;;;;4987138;28;20509;-72
2022/06/23 06:55:03;;;;;;;2.20;2.03;;;22.50;46.20;;;;;;4986025;28;21493;-74
2022/06/23 06:57:49;;;;;;;2.50;2.30;;;22.50;46.20;;;;;;4989444;28;20451;-73
2022/06/23 07:00:24;;;;;;;3.20;2.60;;;22.50;46.10;;;;;;4985304;28;20855;-73
2022/06/23 07:02:57;;;;;;;3.00;2.17;;;22.50;46.20;;;;;;4984747;28;20441;-73
2022/06/23 07:05:31;;;;;;;2.10;1.90;;;22.50;46.20;;;;;;4985596;28;20532;-77
2022/06/23 07:08:13;;;;;;;3.17;2.63;;;22.50;46.20;;;;;;4981069;28;20529;-73
2022/06/23 07:10:54;;;;;;;2.87;2.67;;;22.50;46.20;;;;;;4982618;28;20460;-73
2022/06/23 07:13:52;;;;;;;2.87;2.67;;;22.50;46.20;;;;;;4980898;28;20445;-73
2022/06/23 07:16:28;;;;;;;2.10;2.00;;;22.50;46.20;;;;;;4947657;28;20469;-75
2022/06/23 07:19:05;;;;;;;2.63;2.53;;;22.50;46.20;;;;;;4982031;28;20441;-73
2022/06/23 07:22:10;;;;;;;2.77;2.67;;;22.50;46.20;;;;;;4983806;28;20449;-76
2022/06/23 07:24:53;;;;;;;2.90;2.70;;;22.50;46.30;;;;;;4979357;28;20478;-74
2022/06/23 07:27:24;;;;;;;3.07;2.57;;;22.50;46.30;;;;;;4979654;28;20502;-74
2022/06/23 07:29:56;;;;;;;3.33;2.77;;;22.50;46.30;;;;;;4983798;28;20984;-75
2022/06/23 07:32:30;;;;;;;2.70;2.50;;;22.50;46.30;;;;;;4980757;28;20860;-75
2022/06/23 07:35:34;;;;;;;2.33;2.23;;;22.50;46.30;;;;;;4980569;28;20819;-74
2022/06/23 07:38:17;;;;;;;2.27;2.17;;;22.50;46.30;;;;;;4962474;28;20969;-74
2022/06/23 07:40:53;;;;;;;2.77;2.57;;;22.50;46.30;;;;;;4978873;28;20462;-73
2022/06/23 07:43:42;;;;;;;2.83;2.73;;;22.50;46.30;;;;;;4984828;28;20528;-73
2022/06/23 07:46:08;;;;;;;2.70;2.50;;;22.50;46.30;;;;;;4979608;28;20832;-75
2022/06/23 07:48:35;;;;;;;2.80;2.60;;;22.50;46.40;;;;;;4986547;28;20553;-73
2022/06/23 07:51:05;;;;;;;2.73;2.57;;;22.50;46.50;;;;;;4981111;28;20501;-74
2022/06/23 07:53:38;;;;;;;2.70;2.60;;;22.50;46.40;;;;;;4973280;28;20447;-74
2022/06/23 07:56:05;;;;;;;2.70;2.50;;;22.50;46.50;;;;;;4979901;28;20448;-74
2022/06/23 07:58:34;;;;;;;2.70;2.60;;;22.50;46.50;;;;;;4979382;28;20427;-76
2022/06/23 08:01:31;;;;;;;2.97;2.77;;;22.50;46.60;;;;;;4976806;28;20525;-74
2022/06/23 08:04:15;;;;;;;2.83;2.67;;;22.50;46.50;;;;;;4978834;28;20442;-77
2022/06/23 08:06:40;;;;;;;2.67;2.57;;;22.50;46.50;;;;;;4981995;28;20950;-74
2022/06/23 08:09:25;;;;;;;2.60;2.40;;;22.50;46.60;;;;;;4979567;28;20453;-75
2022/06/23 08:18:26;;;;;;;3.03;2.83;;;22.50;46.60;;;;;;4978959;28;20454;-75
2022/06/23 08:21:01;;;;;;;3.10;2.90;;;22.50;46.70;;;;;;4964664;28;20987;-75
2022/06/23 08:23:33;;;;;;;3.00;2.90;;;22.50;46.80;;;;;;4983226;28;20425;-75
2022/06/23 08:26:00;;;;;;;4.03;2.80;;;22.50;46.70;;;;;;4977779;28;20473;-74
2022/06/23 08:28:26;;;;;;;2.70;2.50;;;22.50;46.70;;;;;;4987047;28;20492;-75
2022/06/23 08:30:52;;;;;;;2.97;2.83;;;22.50;46.60;;;;;;4982063;28;20450;-74
2022/06/23 08:33:17;;;;;;;2.53;2.43;;;22.50;46.70;;;;;;4977927;28;20628;-74
2022/06/23 08:35:49;;;;;;;2.60;2.50;;;22.50;46.60;;;;;;4985306;28;20628;-77
2022/06/23 08:38:31;;;;;;;3.23;2.97;;;22.50;46.70;;;;;;4980908;28;20259;-75
2022/06/23 08:41:17;;;;;;;3.03;2.83;;;22.50;46.70;;;;;;4984635;28;20466;-75
2022/06/23 08:44:08;;;;;;;2.80;2.60;;;22.50;46.60;;;;;;4980218;28;20565;-75
2022/06/23 08:46:39;;;;;;;3.00;2.80;;;22.50;46.70;;;;;;4982987;28;20976;-75
2022/06/23 08:49:14;;;;;;;3.20;3.00;;;22.50;46.80;;;;;;4982551;28;20517;-75
2022/06/23 08:52:01;;;;;;;2.90;2.70;;;22.50;46.80;;;;;;4981352;28;20441;-76
2022/06/23 08:54:36;;;;;;;3.17;2.97;;;22.50;46.90;;;;;;4984974;28;20461;-76
2022/06/23 08:57:30;;;;;;;3.93;3.07;;;22.50;46.80;;;;;;4985058;28;20441;-75
2022/06/23 08:59:57;;;;;;;3.70;3.40;;;22.50;46.80;;;;;;4985412;28;20547;-75
2022/06/23 09:02:46;;;;;;;3.30;3.10;;;22.50;46.90;;;;;;4987111;28;20426;-75
2022/06/23 09:05:14;;;;;;;2.70;2.60;;;22.50;46.80;;;;;;4985715;28;20469;-76
2022/06/23 09:07:51;;;;;;;3.13;2.93;;;22.50;46.90;;;;;;4989422;28;20453;-75
2022/06/23 09:10:39;;;;;;;3.20;3.00;;;22.50;46.90;;;;;;4990202;28;20956;-75
2022/06/23 09:13:32;;;;;;;3.30;3.10;;;22.50;46.80;;;;;;4984696;28;20442;-76
2022/06/23 09:16:19;;;;;;;3.60;3.40;;;22.50;46.80;;;;;;4984426;28;20461;-75
2022/06/23 09:19:06;;;;;;;3.27;3.07;;;22.50;46.90;;;;;;4987208;28;20453;-75
2022/06/23 09:22:12;;;;;;;3.53;3.23;;;22.50;46.80;;;;;;4987382;28;20464;-76
2022/06/23 09:24:58;;;;;;;4.30;3.30;;;22.50;46.80;;;;;;4987230;28;20520;-75
2022/06/23 09:27:27;;;;;;;3.70;3.50;;;22.40;46.80;;;;;;4981554;28;20445;-76
2022/06/23 09:30:18;;;;;;;3.40;3.20;;;22.50;46.90;;;;;;4988434;28;20430;-78
2022/06/23 09:33:11;;;;;;;3.30;3.10;;;22.50;46.90;;;;;;4987424;28;20932;-76
2022/06/23 09:35:54;;;;;;;3.40;3.20;;;22.50;46.80;;;;;;4983841;28;20921;-75
2022/06/23 09:38:53;;;;;;;2.90;2.70;;;22.50;46.80;;;;;;4984889;28;20466;-76
2022/06/23 09:41:49;;;;;;;3.70;3.40;;;22.50;46.90;;;;;;4985223;28;20434;-75
2022/06/23 09:44:14;;;;;;;3.97;3.77;;;22.50;46.90;;;;;;4983769;28;20528;-76
2022/06/23 09:47:16;;;;;;;3.60;3.40;;;22.50;46.90;;;;;;4982961;28;20665;-76
2022/06/23 09:50:00;;;;;;;3.77;3.57;;;22.50;46.90;;;;;;4983814;28;20196;-77
2022/06/23 09:52:40;;;;;;;3.53;3.33;;;22.50;46.90;;;;;;4986215;28;20441;-75
2022/06/23 09:55:24;;;;;;;3.53;3.33;;;22.40;46.80;;;;;;4984617;28;20445;-76
2022/06/23 09:58:15;;;;;;;3.33;3.13;;;22.50;46.90;;;;;;4985673;28;20434;-76
2022/06/23 10:00:40;;;;;;;3.63;3.43;;;22.50;46.90;;;;;;4982779;28;20484;-75
2022/06/23 10:03:21;;;;;;;4.57;4.27;;;22.50;46.90;;;;;;4987241;28;21078;-75
2022/06/23 10:06:05;;;;;;;3.63;3.43;;;22.50;46.90;;;;;;4985129;28;20216;-75
2022/06/23 10:08:48;;;;;;;3.60;3.30;;;22.50;46.90;;;;;;4984234;28;20453;-77
2022/06/23 10:11:47;;;;;;;3.63;3.43;;;22.50;46.90;;;;;;4983849;28;20461;-76
2022/06/23 10:14:37;;;;;;;3.60;3.40;;;22.50;46.90;;;;;;4988283;28;20962;-75
2022/06/23 10:17:19;;;;;;;4.33;4.03;;;22.50;46.80;;;;;;4978038;28;20994;-74
2022/06/23 10:20:03;;;;;;;4.00;3.70;;;22.50;46.90;;;;;;4984037;28;20443;-79
2022/06/23 10:22:53;;;;;;;3.73;3.53;;;22.50;46.90;;;;;;4978836;28;20441;-79
2022/06/23 10:25:45;;;;;;;3.80;3.60;;;22.50;46.80;;;;;;4978290;28;20817;-78
2022/06/23 10:28:29;;;;;;;3.70;3.50;;;22.50;46.90;;;;;;4984514;28;20785;-77
2022/06/23 10:31:11;;;;;;;3.20;3.10;;;22.50;46.80;;;;;;4985661;28;20962;-77
2022/06/23 10:34:14;;;;;;;3.50;3.30;;;22.50;46.80;;;;;;4984311;28;20449;-77
2022/06/23 10:37:03;;;;;;;3.67;3.47;;;22.50;46.80;;;;;;4985168;28;20746;-77
2022/06/23 10:39:49;;;;;;;5.13;3.70;;;22.50;46.80;;;;;;4980163;28;20477;-77
2022/06/23 10:42:42;;;;;;;3.70;3.50;;;22.50;46.80;;;;;;4967721;28;20478;-77
2022/06/23 10:45:28;;;;;;;4.03;3.80;;;22.50;46.80;;;;;;4984802;28;21040;-77
2022/06/23 10:48:32;;;;;;;3.63;3.43;;;22.50;47.70;;;;;;4984894;28;20445;-77
2022/06/23 10:50:57;;;;;;;3.57;3.37;;;22.50;46.80;;;;;;4983139;28;20438;-77
2022/06/23 10:54:00;;;;;;;3.83;3.63;;;22.50;46.90;;;;;;4985974;28;20441;-77
2022/06/23 10:56:33;;;;;;;3.90;3.40;;;22.50;46.90;;;;;;4990079;28;20188;-76
2022/06/23 10:59:11;;;;;;;4.13;3.87;;;22.50;46.80;;;;;;4984795;28;20789;-77
2022/06/23 11:02:01;;;;;;;4.03;3.83;;;22.50;46.80;;;;;;4984985;28;20446;-76
2022/06/23 11:04:50;;;;;;;3.77;3.57;;;22.40;46.80;;;;;;4985742;28;20817;-76
2022/06/23 11:07:44;;;;;;;3.93;3.70;;;22.50;46.80;;;;;;4989000;28;20438;-76
2022/06/23 11:10:16;;;;;;;3.87;3.60;;;22.50;46.90;;;;;;4981299;28;20998;-76
2022/06/23 11:12:58;;;;;;;3.67;3.47;;;22.50;46.90;;;;;;4977235;28;20537;-76
2022/06/23 11:15:36;;;;;;;3.87;3.67;;;22.50;47.00;;;;;;4983012;28;20453;-76
2022/06/23 11:18:29;;;;;;;4.00;3.77;;;22.50;46.90;;;;;;4978161;28;20450;-75
2022/06/23 11:21:18;;;;;;;3.80;3.60;;;22.50;46.90;;;;;;4982021;28;20581;-75
2022/06/23 11:23:59;;;;;;;4.70;4.40;;;22.50;46.80;;;;;;4980718;28;20453;-77
2022/06/23 11:26:48;;;;;;;3.90;3.70;;;22.50;46.90;;;;;;4980353;28;20498;-77
2022/06/23 11:30:00;;;;;;;4.20;3.60;;;22.50;46.80;;;;;;4977680;28;20469;-76
2022/06/23 11:32:32;;;;;;;4.07;3.87;;;22.50;46.80;;;;;;4977916;28;20408;-76
2022/06/23 11:35:24;;;;;;;4.40;4.20;;;22.50;46.90;;;;;;4983915;28;20441;-76
2022/06/23 11:38:20;;;;;;;4.10;3.90;;;22.50;46.80;;;;;;4979778;28;22272;-76
2022/06/23 11:41:06;;;;;;;4.03;3.53;;;22.50;46.80;;;;;;4981336;28;20525;-76
2022/06/23 11:43:35;;;;;;;3.77;3.57;;;22.50;46.90;;;;;;4982035;28;20533;-76
2022/06/23 11:46:32;;;;;;;3.70;3.50;;;22.50;46.80;;;;;;4979802;28;20469;-76
2022/06/23 11:49:08;;;;;;;4.13;3.80;;;22.40;46.80;;;;;;4981861;28;20435;-76
2022/06/23 11:51:52;;;;;;;4.00;3.80;;;22.40;46.70;;;;;;4981583;28;20450;-76
2022/06/23 11:54:43;;;;;;;3.97;3.77;;;22.50;46.90;;;;;;4980143;28;20444;-76
2022/06/23 11:57:17;;;;;;;4.00;3.80;;;22.50;46.80;;;;;;4979404;28;20426;-76
2022/06/23 12:00:04;;;;;;;4.30;4.10;;;22.50;46.90;;;;;;4979839;28;20497;-76
2022/06/23 12:02:32;;;;;;;4.07;3.87;;;22.50;46.90;;;;;;4981191;28;20469;-76
2022/06/23 12:04:58;;;;;;;4.10;3.90;;;22.50;46.90;;;;;;4978255;28;20479;-75
2022/06/23 12:07:46;;;;;;;3.80;3.60;;;22.50;46.90;;;;;;4981416;28;20529;-76
2022/06/23 12:10:22;;;;;;;4.43;4.23;;;22.50;46.90;;;;;;4983490;28;20201;-76
2022/06/23 12:12:51;;;;;;;4.13;3.93;;;22.50;46.80;;;;;;4978446;28;20438;-75
2022/06/23 12:15:20;;;;;;;4.00;3.80;;;22.40;46.70;;;;;;4980356;28;20443;-75
2022/06/23 12:17:55;;;;;;;4.00;3.80;;;22.50;46.90;;;;;;4983094;28;20799;-75
2022/06/23 12:20:25;;;;;;;4.40;4.10;;;22.50;46.90;;;;;;4983070;28;20449;-75
2022/06/23 12:23:21;;;;;;;4.47;4.07;;;22.50;46.80;;;;;;4981051;28;20869;-75
2022/06/23 12:26:15;;;;;;;4.30;4.10;;;22.50;46.90;;;;;;4976997;28;20470;-75
2022/06/23 12:28:55;;;;;;;4.03;3.83;;;22.50;46.80;;;;;;4981185;28;20548;-75
2022/06/23 12:31:38;;;;;;;4.23;4.03;;;22.50;46.90;;;;;;4979268;28;20891;-75
2022/06/23 12:34:11;;;;;;;3.77;3.57;;;22.40;46.80;;;;;;4978654;28;20500;-74
2022/06/23 12:37:00;;;;;;;4.47;4.17;;;22.50;46.90;;;;;;4979527;28;20929;-75
2022/06/23 12:39:44;;;;;;;4.40;4.20;;;22.50;46.90;;;;;;4978014;28;20450;-74
2022/06/23 12:42:15;;;;;;;4.20;4.00;;;22.50;46.80;;;;;;4978550;28;20442;-74
2022/06/23 12:45:15;;;;;;;3.93;3.73;;;22.50;46.80;;;;;;4984013;28;20466;-74
2022/06/23 12:48:10;;;;;;;4.40;4.20;;;22.50;46.90;;;;;;4987010;28;20490;-76
2022/06/23 12:51:06;;;;;;;4.70;4.40;;;22.50;46.90;;;;;;4985536;28;20438;-76
2022/06/23 12:54:04;;;;;;;4.00;3.80;;;22.50;46.90;;;;;;4980226;28;20442;-76
2022/06/23 12:56:36;;;;;;;4.27;4.07;;;22.50;46.90;;;;;;4950095;28;20450;-77
2022/06/23 12:59:24;;;;;;;4.10;3.90;;;22.50;46.80;;;;;;4985172;28;20434;-77
2022/06/23 13:01:57;;;;;;;4.47;4.17;;;22.50;46.80;;;;;;4981712;28;20496;-76
2022/06/23 13:04:31;;;;;;;4.30;4.00;;;22.50;46.90;;;;;;4981531;28;22145;-76
2022/06/23 13:07:04;;;;;;;4.60;4.40;;;22.50;46.90;;;;;;4986091;28;21006;-77
2022/06/23 13:09:40;;;;;;;4.83;4.60;;;22.50;46.90;;;;;;4991471;28;20537;-77
2022/06/23 13:12:30;;;;;;;4.33;4.13;;;22.50;46.80;;;;;;4985078;28;20433;-77
2022/06/23 13:15:03;;;;;;;4.43;4.20;;;22.50;46.90;;;;;;4991040;28;20430;-77
2022/06/23 13:17:28;;;;;;;4.47;4.27;;;22.50;46.90;;;;;;4989113;28;20433;-77
2022/06/23 13:20:06;;;;;;;4.80;4.50;;;22.50;46.90;;;;;;4983781;28;20951;-76
2022/06/23 13:22:45;;;;;;;4.53;4.33;;;22.50;46.90;;;;;;4989705;28;20276;-76
2022/06/23 13:25:16;;;;;;;4.30;4.07;;;22.50;46.80;;;;;;4983612;28;20879;-73
2022/06/23 13:27:49;;;;;;;4.03;3.83;;;22.50;46.90;;;;;;4985156;28;20932;-75
2022/06/23 13:30:19;;;;;;;4.27;3.97;;;22.50;46.80;;;;;;4980693;28;20442;-76
2022/06/23 13:32:57;;;;;;;4.27;4.07;;;22.50;46.90;;;;;;4979339;28;21061;-74
2022/06/23 13:35:34;;;;;;;4.90;4.60;;;22.50;46.80;;;;;;4977120;28;20497;-72
2022/06/23 13:38:08;;;;;;;4.93;4.63;;;22.50;46.90;;;;;;4982409;28;20477;-75
2022/06/23 13:40:55;;;;;;;3.70;3.50;;;22.50;46.90;;;;;;4986751;28;20434;-75
2022/06/23 13:43:40;;;;;;;4.30;4.10;;;22.50;46.90;;;;;;4986389;28;20438;-75
2022/06/23 13:46:12;;;;;;;5.10;4.80;;;22.50;46.90;;;;;;4987993;28;20469;-75
2022/06/23 13:48:57;;;;;;;3.90;3.60;;;22.50;46.90;;;;;;4985117;28;20521;-75
2022/06/23 13:51:38;;;;;;;4.90;4.60;;;22.50;46.90;;;;;;4985223;28;20553;-75
2022/06/23 13:54:18;;;;;;;4.83;4.53;;;22.50;46.90;;;;;;4984770;28;20430;-74
2022/06/23 13:56:54;;;;;;;4.43;4.13;;;22.50;46.90;;;;;;4987657;28;20529;-74
2022/06/23 13:59:55;;;;;;;4.80;4.50;;;22.50;46.90;;;;;;4991699;28;20916;-74
2022/06/23 14:03:03;;;;;;;5.03;4.73;;;22.50;46.90;;;;;;4990028;28;20442;-74
2022/06/23 14:05:32;;;;;;;4.20;4.00;;;22.50;46.90;;;;;;4981140;28;20473;-74